createdAt,value
2023-04-26T00:00:22.601Z,98280.56
2023-04-26T00:02:51.009Z,98273.00
2023-04-26T00:07:46.906Z,98275.81
2023-04-26T00:10:14.301Z,98279.50
2023-04-26T00:12:41.833Z,98277.84
2023-04-26T00:15:09.699Z,98273.09
2023-04-26T00:17:37.650Z,98270.00
2023-04-26T00:20:09.160Z,98270.44
2023-04-26T00:22:36.736Z,98272.47
2023-04-26T00:25:04.743Z,98279.34
2023-04-26T00:27:32.320Z,98276.06
2023-04-26T00:30:00.052Z,98275.03
2023-04-26T00:32:27.596Z,98269.50
2023-04-26T00:34:55.373Z,98271.09
2023-04-26T00:37:23.368Z,98272.75
2023-04-26T00:39:51.128Z,98264.19
2023-04-26T00:42:19.468Z,98267.44
2023-04-26T00:44:47.108Z,98274.59
2023-04-26T00:47:15.018Z,98276.84
2023-04-26T00:49:42.478Z,98277.66
2023-04-26T00:52:10.227Z,98273.59
2023-04-26T00:54:37.806Z,98285.41
2023-04-26T00:57:07.125Z,98287.44
2023-04-26T00:59:35.421Z,98287.44
2023-04-26T01:02:05.753Z,98290.09
2023-04-26T01:04:33.601Z,98291.50
2023-04-26T01:07:04.004Z,98292.50
2023-04-26T01:09:33.849Z,98290.25
2023-04-26T01:12:01.580Z,98288.13
2023-04-26T01:14:29.464Z,98292.81
2023-04-26T01:16:58.058Z,98292.22
2023-04-26T01:19:25.626Z,98298.41
2023-04-26T01:21:52.714Z,98294.75
2023-04-26T01:24:21.968Z,98295.97
2023-04-26T01:26:49.652Z,98294.94
2023-04-26T01:29:21.850Z,98296.00
2023-04-26T01:31:49.297Z,98287.28
2023-04-26T01:34:17.265Z,98282.03
2023-04-26T01:36:46.610Z,98287.88
2023-04-26T01:39:14.255Z,98278.69
2023-04-26T01:41:41.668Z,98284.84
2023-04-26T01:44:09.118Z,98286.53
2023-04-26T01:46:36.615Z,98278.69
2023-04-26T01:49:04.110Z,98282.53
2023-04-26T01:51:32.786Z,98283.81
2023-04-26T01:54:00.291Z,98285.75
2023-04-26T01:56:27.339Z,98287.94
2023-04-26T01:58:57.806Z,98276.63
2023-04-26T02:01:24.902Z,98272.31
2023-04-26T02:03:52.857Z,98281.94
2023-04-26T02:06:21.465Z,98280.63
2023-04-26T02:08:49.661Z,98284.72
2023-04-26T02:11:17.297Z,98286.72
2023-04-26T02:13:44.922Z,98288.34
2023-04-26T02:16:12.331Z,98288.75
2023-04-26T02:18:41.658Z,98286.00
2023-04-26T02:21:11.480Z,98287.50
2023-04-26T02:23:38.934Z,98290.00
2023-04-26T02:26:06.434Z,98286.00
2023-04-26T02:28:33.476Z,98280.31
2023-04-26T02:31:02.471Z,98278.75
2023-04-26T02:33:30.566Z,98282.16
2023-04-26T02:35:58.188Z,98282.84
2023-04-26T02:38:28.471Z,98281.00
2023-04-26T02:41:02.378Z,98286.25
2023-04-26T02:43:30.601Z,98281.34
2023-04-26T02:46:01.068Z,98282.69
2023-04-26T02:48:28.686Z,98276.22
2023-04-26T02:50:57.086Z,98270.06
2023-04-26T02:53:24.983Z,98278.47
2023-04-26T02:55:52.383Z,98273.53
2023-04-26T02:58:20.044Z,98286.91
2023-04-26T03:00:48.333Z,98278.97
2023-04-26T03:03:15.938Z,98284.53
2023-04-26T03:05:46.398Z,98286.72
2023-04-26T03:08:13.940Z,98288.50
2023-04-26T03:10:41.422Z,98292.78
2023-04-26T03:13:09.351Z,98281.88
2023-04-26T03:15:36.897Z,98285.09
2023-04-26T03:18:04.542Z,98288.81
2023-04-26T03:20:32.471Z,98295.91
2023-04-26T03:23:00.006Z,98300.50
2023-04-26T03:25:27.418Z,98294.41
2023-04-26T03:27:55.414Z,98292.13
2023-04-26T03:30:22.890Z,98301.72
2023-04-26T03:32:50.294Z,98301.09
2023-04-26T03:35:18.103Z,98300.84
2023-04-26T03:37:45.686Z,98306.16
2023-04-26T03:40:14.672Z,98298.44
2023-04-26T03:42:42.249Z,98303.69
2023-04-26T03:45:09.880Z,98302.06
2023-04-26T03:47:37.360Z,98304.31
2023-04-26T03:50:05.108Z,98308.16
2023-04-26T03:52:32.526Z,98306.34
2023-04-26T03:54:59.877Z,98309.47
2023-04-26T03:57:27.381Z,98301.78
2023-04-26T03:59:54.400Z,98304.09
2023-04-26T04:02:22.199Z,98307.13
2023-04-26T04:04:50.032Z,98304.50
2023-04-26T04:07:17.768Z,98307.19
2023-04-26T04:09:45.573Z,98314.19
2023-04-26T04:15:24.324Z,98310.34
2023-04-26T04:18:04.998Z,98301.66
2023-04-26T04:20:40.957Z,98307.31
2023-04-26T04:23:19.412Z,98311.00
2023-04-26T04:25:56.268Z,98310.91
2023-04-26T04:31:33.512Z,98309.47
2023-04-26T04:37:02.573Z,98304.34
2023-04-26T04:39:43.651Z,98303.91
2023-04-26T04:42:24.257Z,98308.03
2023-04-26T04:45:09.064Z,98314.50
2023-04-26T04:47:45.498Z,98312.59
2023-04-26T04:50:26.074Z,98312.53
2023-04-26T04:53:05.590Z,98312.13
2023-04-26T04:55:42.448Z,98313.31
2023-04-26T05:01:08.087Z,98315.06
2023-04-26T05:03:55.977Z,98326.41
2023-04-26T05:06:35.696Z,98329.13
2023-04-26T05:09:08.413Z,98331.44
2023-04-26T05:11:49.819Z,98329.69
2023-04-26T05:14:27.222Z,98341.69
2023-04-26T05:17:05.269Z,98346.56
2023-04-26T05:19:39.123Z,98345.75
2023-04-26T05:22:22.197Z,98348.91
2023-04-26T05:24:53.359Z,98356.06
2023-04-26T05:27:26.394Z,98350.31
2023-04-26T05:30:28.342Z,98357.97
2023-04-26T05:33:25.710Z,98356.97
2023-04-26T05:36:14.133Z,98368.50
2023-04-26T05:38:42.445Z,98367.75
2023-04-26T05:41:10.288Z,98375.91
2023-04-26T05:43:38.756Z,98371.25
2023-04-26T05:46:07.300Z,98366.84
2023-04-26T05:48:35.479Z,98378.28
2023-04-26T05:51:03.709Z,98383.31
2023-04-26T05:53:31.475Z,98380.66
2023-04-26T05:55:59.370Z,98380.41
2023-04-26T05:58:27.540Z,98377.84
2023-04-26T06:00:57.006Z,98384.94
2023-04-26T06:03:25.044Z,98378.09
2023-04-26T06:05:53.483Z,98378.34
2023-04-26T06:08:23.057Z,98383.97
2023-04-26T06:10:51.196Z,98385.69
2023-04-26T06:14:19.826Z,98391.13
2023-04-26T06:16:57.920Z,98380.09
2023-04-26T06:19:25.892Z,98383.25
2023-04-26T06:21:55.609Z,98385.69
2023-04-26T06:24:25.433Z,98379.97
2023-04-26T06:26:53.114Z,98384.31
2023-04-26T06:29:21.820Z,98388.88
2023-04-26T06:31:49.680Z,98388.47
2023-04-26T06:34:20.481Z,98385.06
2023-04-26T06:36:48.290Z,98394.25
2023-04-26T06:39:17.357Z,98394.75
2023-04-26T06:41:45.169Z,98395.22
2023-04-26T06:44:13.265Z,98398.94
2023-04-26T06:46:43.628Z,98400.66
2023-04-26T06:49:11.783Z,98402.19
2023-04-26T06:51:39.753Z,98403.28
2023-04-26T06:54:07.229Z,98393.94
2023-04-26T06:56:34.941Z,98399.66
2023-04-26T06:59:05.070Z,98398.00
2023-04-26T07:01:34.243Z,98396.53
2023-04-26T07:04:03.788Z,98393.69
2023-04-26T07:06:32.114Z,98392.81
2023-04-26T07:09:01.497Z,98388.34
2023-04-26T07:11:29.388Z,98385.28
2023-04-26T07:13:57.266Z,98377.75
2023-04-26T07:16:25.405Z,98380.00
2023-04-26T07:18:53.494Z,98381.50
2023-04-26T07:21:21.157Z,98388.59
2023-04-26T07:23:48.788Z,98374.00
2023-04-26T07:26:16.808Z,98374.91
2023-04-26T07:28:44.410Z,98374.25
2023-04-26T07:31:12.702Z,98369.28
2023-04-26T07:33:40.618Z,98364.78
2023-04-26T07:36:08.524Z,98362.28
2023-04-26T07:38:36.039Z,98362.94
2023-04-26T07:41:04.682Z,98364.25
2023-04-26T07:43:32.211Z,98364.94
2023-04-26T07:46:03.274Z,98364.47
2023-04-26T07:48:30.870Z,98365.44
2023-04-26T07:51:06.006Z,98357.22
2023-04-26T07:53:33.554Z,98362.38
2023-04-26T07:56:01.207Z,98365.75
2023-04-26T07:58:29.155Z,98354.34
2023-04-26T08:00:56.942Z,98356.63
2023-04-26T08:03:24.782Z,98358.56
2023-04-26T08:05:54.082Z,98363.81
2023-04-26T08:08:23.103Z,98364.28
2023-04-26T08:10:51.065Z,98363.81
2023-04-26T08:13:19.111Z,98362.31
2023-04-26T08:15:46.840Z,98366.81
2023-04-26T08:18:14.593Z,98356.22
2023-04-26T08:20:42.617Z,98361.31
2023-04-26T08:23:10.539Z,98368.50
2023-04-26T08:25:38.275Z,98371.00
2023-04-26T08:28:11.611Z,98374.72
2023-04-26T08:30:39.308Z,98377.75
2023-04-26T08:33:07.307Z,98372.19
2023-04-26T08:35:41.367Z,98377.34
2023-04-26T08:38:09.094Z,98373.16
2023-04-26T08:40:37.128Z,98371.97
2023-04-26T08:43:06.182Z,98374.53
2023-04-26T08:45:37.021Z,98378.59
2023-04-26T08:48:09.451Z,98381.28
2023-04-26T08:50:38.016Z,98381.72
2023-04-26T08:53:06.515Z,98381.19
2023-04-26T08:55:36.014Z,98377.84
2023-04-26T08:58:08.021Z,98368.44
2023-04-26T09:00:36.044Z,98374.19
2023-04-26T09:03:04.752Z,98378.38
2023-04-26T09:05:33.518Z,98387.03
2023-04-26T09:08:03.525Z,98373.47
2023-04-26T09:10:32.579Z,98363.63
2023-04-26T09:13:00.525Z,98362.94
2023-04-26T09:15:28.480Z,98362.72
2023-04-26T09:17:56.359Z,98360.72
2023-04-26T09:20:28.612Z,98357.38
2023-04-26T09:23:07.161Z,98353.94
2023-04-26T09:25:45.849Z,98356.75
2023-04-26T09:28:28.576Z,98353.50
2023-04-26T09:30:58.844Z,98354.06
2023-04-26T09:33:33.551Z,98350.31
2023-04-26T09:36:24.319Z,98357.53
2023-04-26T09:38:58.383Z,98347.22
2023-04-26T09:41:48.583Z,98353.56
2023-04-26T09:44:24.581Z,98350.31
2023-04-26T09:47:16.361Z,98344.97
2023-04-26T09:49:53.231Z,98346.56
2023-04-26T09:52:25.788Z,98339.97
2023-04-26T09:54:56.781Z,98337.88
2023-04-26T09:57:27.208Z,98330.28
2023-04-26T09:59:57.862Z,98340.00
2023-04-26T10:02:30.220Z,98331.03
2023-04-26T10:05:01.427Z,98335.63
2023-04-26T10:07:35.091Z,98334.66
2023-04-26T10:10:05.561Z,98326.75
2023-04-26T10:12:36.240Z,98322.91
2023-04-26T10:15:09.843Z,98323.81
2023-04-26T10:17:42.542Z,98327.44
2023-04-26T10:20:18.724Z,98330.56
2023-04-26T10:22:53.859Z,98326.31
2023-04-26T10:25:36.889Z,98333.25
2023-04-26T10:28:11.516Z,98326.28
2023-04-26T10:31:02.172Z,98322.91
2023-04-26T10:33:31.633Z,98326.19
2023-04-26T10:36:09.757Z,98323.41
2023-04-26T10:38:43.423Z,98327.81
2023-04-26T10:41:35.135Z,98326.41
2023-04-26T10:44:37.583Z,98325.16
2023-04-26T10:47:08.263Z,98320.19
2023-04-26T10:49:49.548Z,98312.84
2023-04-26T10:52:24.638Z,98318.03
2023-04-26T10:54:58.423Z,98320.09
2023-04-26T10:57:58.274Z,98310.38
2023-04-26T11:00:31.662Z,98309.06
2023-04-26T11:03:07.375Z,98311.91
2023-04-26T11:05:39.759Z,98306.88
2023-04-26T11:08:10.289Z,98303.81
2023-04-26T11:10:39.422Z,98300.88
2023-04-26T11:13:08.463Z,98290.78
2023-04-26T11:15:36.482Z,98295.19
2023-04-26T11:18:05.208Z,98283.69
2023-04-26T11:20:33.995Z,98287.66
2023-04-26T11:23:02.066Z,98285.56
2023-04-26T11:25:29.937Z,98276.53
2023-04-26T11:28:03.524Z,98277.94
2023-04-26T11:30:32.200Z,98279.03
2023-04-26T11:33:06.473Z,98277.56
2023-04-26T11:35:36.929Z,98268.78
2023-04-26T11:38:07.704Z,98263.78
2023-04-26T11:40:37.251Z,98263.78
2023-04-26T11:43:08.894Z,98247.06
2023-04-26T11:45:37.722Z,98260.63
2023-04-26T11:48:07.806Z,98248.91
2023-04-26T11:50:37.011Z,98245.16
2023-04-26T11:53:08.806Z,98243.72
2023-04-26T11:55:36.890Z,98230.03
2023-04-26T11:58:14.639Z,98240.78
2023-04-26T12:01:04.450Z,98237.75
2023-04-26T12:03:38.211Z,98240.84
2023-04-26T12:06:06.209Z,98241.13
2023-04-26T12:08:34.096Z,98235.81
2023-04-26T12:11:02.758Z,98229.25
2023-04-26T12:13:30.701Z,98226.16
2023-04-26T12:15:57.679Z,98242.13
2023-04-26T12:18:32.597Z,98237.00
2023-04-26T12:21:00.238Z,98233.03
2023-04-26T12:23:27.908Z,98233.59
2023-04-26T12:25:57.584Z,98224.25
2023-04-26T12:28:25.635Z,98218.53
2023-04-26T12:30:53.197Z,98224.47
2023-04-26T12:33:23.032Z,98209.19
2023-04-26T12:35:51.285Z,98230.97
2023-04-26T12:38:19.080Z,98223.13
2023-04-26T12:40:47.044Z,98214.47
2023-04-26T12:43:16.652Z,98216.41
2023-04-26T12:45:43.992Z,98220.38
2023-04-26T12:48:11.914Z,98224.06
2023-04-26T12:50:39.569Z,98222.91
2023-04-26T12:53:06.978Z,98198.09
2023-04-26T12:55:34.572Z,98195.66
2023-04-26T12:58:01.540Z,98201.81
2023-04-26T13:00:29.056Z,98200.16
2023-04-26T13:02:56.227Z,98207.91
2023-04-26T13:05:24.895Z,98215.13
2023-04-26T13:07:51.970Z,98208.16
2023-04-26T13:10:19.514Z,98214.09
2023-04-26T13:12:46.852Z,98212.84
2023-04-26T13:15:15.183Z,98199.97
2023-04-26T13:17:44.477Z,98214.78
2023-04-26T13:20:12.176Z,98213.50
2023-04-26T13:22:45.300Z,98214.69
2023-04-26T13:25:13.501Z,98207.50
2023-04-26T13:27:41.094Z,98207.44
2023-04-26T13:30:09.014Z,98209.91
2023-04-26T13:32:36.360Z,98204.31
2023-04-26T13:35:04.426Z,98203.13
2023-04-26T13:37:31.693Z,98205.69
2023-04-26T13:39:59.127Z,98196.06
2023-04-26T13:42:27.161Z,98196.44
2023-04-26T13:44:54.833Z,98186.50
2023-04-26T13:47:22.276Z,98189.31
2023-04-26T13:49:49.390Z,98184.31
2023-04-26T13:52:16.851Z,98191.38
2023-04-26T13:54:44.138Z,98202.03
2023-04-26T13:57:11.804Z,98202.44
2023-04-26T13:59:40.335Z,98198.44
2023-04-26T14:02:07.723Z,98194.41
2023-04-26T14:04:34.926Z,98193.78
2023-04-26T14:07:02.048Z,98199.75
2023-04-26T14:09:29.349Z,98203.34
2023-04-26T14:12:07.279Z,98197.75
2023-04-26T14:14:36.413Z,98195.31
2023-04-26T14:17:03.824Z,98193.09
2023-04-26T14:19:31.348Z,98195.13
2023-04-26T14:21:58.357Z,98188.94
2023-04-26T14:24:25.524Z,98186.38
2023-04-26T14:26:52.506Z,98193.50
2023-04-26T14:29:19.605Z,98184.53
2023-04-26T14:31:46.660Z,98189.75
2023-04-26T14:34:14.452Z,98181.66
2023-04-26T14:36:41.505Z,98181.25
2023-04-26T14:39:08.503Z,98177.66
2023-04-26T14:41:35.974Z,98177.06
2023-04-26T14:44:03.503Z,98181.84
2023-04-26T14:46:30.747Z,98182.56
2023-04-26T14:48:58.184Z,98176.97
2023-04-26T14:51:26.252Z,98190.09
2023-04-26T14:53:53.239Z,98181.06
2023-04-26T14:56:20.605Z,98176.41
2023-04-26T14:58:47.653Z,98176.63
2023-04-26T15:01:15.437Z,98180.09
2023-04-26T15:03:42.867Z,98177.44
2023-04-26T15:06:10.460Z,98182.94
2023-04-26T15:08:37.394Z,98188.47
2023-04-26T15:11:04.533Z,98185.47
2023-04-26T15:13:31.890Z,98194.47
2023-04-26T15:16:07.387Z,98178.59
2023-04-26T15:18:34.916Z,98189.88
2023-04-26T15:21:02.071Z,98178.34
2023-04-26T15:23:29.047Z,98182.16
2023-04-26T15:26:02.018Z,98169.56
2023-04-26T15:28:29.457Z,98174.41
2023-04-26T15:31:04.071Z,98167.66
2023-04-26T15:33:31.312Z,98161.22
2023-04-26T15:35:58.698Z,98169.19
2023-04-26T15:38:26.055Z,98166.25
2023-04-26T15:40:56.248Z,98161.56
2023-04-26T15:43:23.170Z,98166.91
2023-04-26T15:45:50.342Z,98162.47
2023-04-26T15:48:17.676Z,98166.03
2023-04-26T15:50:44.875Z,98162.81
2023-04-26T15:53:12.064Z,98157.31
2023-04-26T15:55:39.072Z,98169.09
2023-04-26T15:58:06.280Z,98157.31
2023-04-26T16:00:33.973Z,98153.69
2023-04-26T16:03:02.302Z,98166.13
2023-04-26T16:05:31.596Z,98162.63
2023-04-26T16:07:59.681Z,98154.78
2023-04-26T16:10:27.224Z,98161.84
2023-04-26T16:12:54.183Z,98149.69
2023-04-26T16:15:21.622Z,98151.97
2023-04-26T16:17:48.770Z,98139.84
2023-04-26T16:20:16.504Z,98149.97
2023-04-26T16:22:45.028Z,98145.16
2023-04-26T16:25:12.819Z,98149.09
2023-04-26T16:27:40.353Z,98151.00
2023-04-26T16:30:08.118Z,98146.34
2023-04-26T16:32:35.665Z,98141.69
2023-04-26T16:35:03.046Z,98150.19
2023-04-26T16:37:30.949Z,98144.03
2023-04-26T16:39:58.616Z,98146.81
2023-04-26T16:42:26.352Z,98155.00
2023-04-26T16:44:55.567Z,98156.25
2023-04-26T16:47:22.831Z,98151.75
2023-04-26T16:49:50.506Z,98160.25
2023-04-26T16:52:17.886Z,98158.84
2023-04-26T16:54:45.285Z,98153.94
2023-04-26T16:57:16.374Z,98156.81
2023-04-26T16:59:43.848Z,98163.91
2023-04-26T17:02:12.509Z,98154.50
2023-04-26T17:04:40.113Z,98159.06
2023-04-26T17:07:07.697Z,98164.44
2023-04-26T17:09:36.769Z,98170.31
2023-04-26T17:12:07.359Z,98161.22
2023-04-26T17:14:34.916Z,98153.56
2023-04-26T17:17:02.154Z,98154.47
2023-04-26T17:19:29.307Z,98159.59
2023-04-26T17:21:56.618Z,98168.75
2023-04-26T17:25:36.847Z,98170.94
2023-04-26T17:28:14.984Z,98177.34
2023-04-26T17:30:42.060Z,98177.94
2023-04-26T17:33:09.724Z,98174.03
2023-04-26T17:35:37.112Z,98181.28
2023-04-26T17:38:04.912Z,98181.00
2023-04-26T17:40:32.317Z,98180.75
2023-04-26T17:42:59.751Z,98173.19
2023-04-26T17:45:27.350Z,98186.53
2023-04-26T17:47:54.737Z,98183.53
2023-04-26T17:50:23.575Z,98190.28
2023-04-26T17:52:50.944Z,98187.69
2023-04-26T17:55:18.497Z,98188.53
2023-04-26T17:57:45.510Z,98187.00
2023-04-26T18:00:13.822Z,98191.22
2023-04-26T18:02:43.178Z,98190.91
2023-04-26T18:05:11.374Z,98189.09
2023-04-26T18:07:38.956Z,98199.03
2023-04-26T18:10:06.867Z,98201.78
2023-04-26T18:12:34.308Z,98202.56
2023-04-26T18:15:01.764Z,98198.78
2023-04-26T18:17:29.501Z,98189.66
2023-04-26T18:19:57.019Z,98201.66
2023-04-26T18:22:24.370Z,98203.53
2023-04-26T18:24:51.728Z,98207.56
2023-04-26T18:27:19.470Z,98206.41
2023-04-26T18:29:47.859Z,98206.31
2023-04-26T18:32:15.496Z,98219.91
2023-04-26T18:34:44.318Z,98213.09
2023-04-26T18:37:11.766Z,98217.78
2023-04-26T18:39:39.486Z,98220.06
2023-04-26T18:42:07.148Z,98219.78
2023-04-26T18:44:34.739Z,98225.06
2023-04-26T18:47:02.271Z,98228.53
2023-04-26T18:49:29.903Z,98226.38
2023-04-26T18:51:59.830Z,98232.53
2023-04-26T18:54:26.966Z,98239.19
2023-04-26T18:56:56.991Z,98240.44
2023-04-26T18:59:26.765Z,98244.16
2023-04-26T19:01:54.322Z,98249.00
2023-04-26T19:04:22.019Z,98254.94
2023-04-26T19:06:50.137Z,98254.50
2023-04-26T19:09:18.047Z,98255.84
2023-04-26T19:11:46.351Z,98264.88
2023-04-26T19:14:13.880Z,98267.41
2023-04-26T19:16:41.439Z,98268.44
2023-04-26T19:19:09.029Z,98264.97
2023-04-26T19:21:39.469Z,98270.66
2023-04-26T19:24:10.015Z,98273.41
2023-04-26T19:26:38.067Z,98271.66
2023-04-26T19:29:07.631Z,98276.44
2023-04-26T19:31:35.195Z,98275.09
2023-04-26T19:34:03.987Z,98275.94
2023-04-26T19:36:31.586Z,98276.34
2023-04-26T19:38:59.270Z,98278.22
2023-04-26T19:41:26.667Z,98279.84
2023-04-26T19:43:57.247Z,98281.22
2023-04-26T19:46:27.628Z,98288.88
2023-04-26T19:48:55.079Z,98290.94
2023-04-26T19:51:22.804Z,98290.69
2023-04-26T19:53:50.259Z,98292.25
2023-04-26T19:56:20.417Z,98297.66
2023-04-26T19:58:47.802Z,98301.31
2023-04-26T20:01:15.238Z,98289.25
2023-04-26T20:03:42.710Z,98302.72
2023-04-26T20:06:13.997Z,98303.22
2023-04-26T20:08:42.558Z,98306.81
2023-04-26T20:11:15.349Z,98301.28
2023-04-26T20:13:43.052Z,98312.91
2023-04-26T20:16:11.118Z,98301.31
2023-04-26T20:18:38.905Z,98303.16
2023-04-26T20:21:06.316Z,98300.94
2023-04-26T20:23:33.761Z,98297.28
2023-04-26T20:26:01.514Z,98300.03
2023-04-26T20:28:28.555Z,98305.06
2023-04-26T20:30:56.517Z,98294.88
2023-04-26T20:33:23.900Z,98300.84
2023-04-26T20:35:51.866Z,98301.03
2023-04-26T20:38:19.223Z,98306.31
2023-04-26T20:40:46.148Z,98303.31
2023-04-26T20:43:13.915Z,98292.50
2023-04-26T20:45:42.542Z,98294.88
2023-04-26T20:48:09.994Z,98292.25
2023-04-26T20:50:37.126Z,98303.22
2023-04-26T20:53:04.451Z,98302.03
2023-04-26T20:55:31.383Z,98298.00
2023-04-26T20:57:58.619Z,98299.53
2023-04-26T21:00:26.292Z,98290.88
2023-04-26T21:02:53.868Z,98297.88
2023-04-26T21:05:21.084Z,98295.44
2023-04-26T21:07:48.225Z,98300.13
2023-04-26T21:10:15.681Z,98297.44
2023-04-26T21:12:42.666Z,98303.38
2023-04-26T21:15:10.760Z,98302.59
2023-04-26T21:17:40.259Z,98297.94
2023-04-26T21:20:07.702Z,98290.28
2023-04-26T21:22:35.099Z,98303.88
2023-04-26T21:25:02.491Z,98302.44
2023-04-26T21:27:29.458Z,98306.97
2023-04-26T21:29:57.574Z,98308.78
2023-04-26T21:32:24.930Z,98309.81
2023-04-26T21:34:51.891Z,98309.34
2023-04-26T21:37:18.999Z,98305.31
2023-04-26T21:39:46.718Z,98307.34
2023-04-26T21:42:14.096Z,98307.81
2023-04-26T21:44:41.312Z,98311.31
2023-04-26T21:47:08.765Z,98298.81
2023-04-26T21:49:35.829Z,98315.19
2023-04-26T21:52:02.881Z,98316.41
2023-04-26T21:54:29.823Z,98320.50
2023-04-26T21:56:56.778Z,98316.66
2023-04-26T21:59:24.420Z,98319.50
2023-04-26T22:01:51.862Z,98314.19
2023-04-26T22:04:19.254Z,98315.88
2023-04-26T22:06:46.385Z,98317.69
2023-04-26T22:09:13.811Z,98320.78
2023-04-26T22:11:40.880Z,98319.16
2023-04-26T22:14:07.839Z,98316.25
2023-04-26T22:16:34.833Z,98320.16
2023-04-26T22:19:01.779Z,98318.53
2023-04-26T22:21:29.035Z,98324.06
2023-04-26T22:23:56.258Z,98325.91
2023-04-26T22:26:23.390Z,98321.00
2023-04-26T22:28:50.927Z,98318.56
2023-04-26T22:31:18.031Z,98318.97
2023-04-26T22:33:44.955Z,98325.09
2023-04-26T22:36:11.968Z,98325.31
2023-04-26T22:38:38.901Z,98327.97
2023-04-26T22:41:07.535Z,98328.56
2023-04-26T22:43:35.928Z,98327.34
2023-04-26T22:46:03.246Z,98324.28
2023-04-26T22:48:30.250Z,98326.34
2023-04-26T22:50:57.536Z,98322.25
2023-04-26T22:53:24.890Z,98323.25
2023-04-26T22:55:52.228Z,98320.38
2023-04-26T22:58:19.570Z,98321.84
2023-04-26T23:00:46.642Z,98323.69
2023-04-26T23:03:13.930Z,98327.16
2023-04-26T23:05:41.691Z,98338.84
2023-04-26T23:08:08.625Z,98337.41
2023-04-26T23:10:35.707Z,98338.81
2023-04-26T23:13:03.874Z,98339.63
2023-04-26T23:15:31.902Z,98337.31
2023-04-26T23:17:59.883Z,98342.69
2023-04-26T23:20:27.793Z,98342.09
2023-04-26T23:22:55.432Z,98342.69
2023-04-26T23:25:22.758Z,98346.41
2023-04-26T23:27:50.268Z,98348.22
2023-04-26T23:30:17.933Z,98338.41
2023-04-26T23:32:44.925Z,98343.75
2023-04-26T23:35:11.898Z,98340.59
2023-04-26T23:37:38.841Z,98342.91
2023-04-26T23:40:06.874Z,98338.63
2023-04-26T23:42:33.827Z,98340.47
2023-04-26T23:45:00.980Z,98339.41
2023-04-26T23:47:28.009Z,98348.16
2023-04-26T23:49:55.032Z,98343.22
2023-04-26T23:52:21.984Z,98334.66
2023-04-26T23:54:48.903Z,98340.94
2023-04-26T23:57:16.274Z,98337.75
2023-04-26T23:59:43.272Z,98335.88
